createdAt,value
2022-10-12T00:02:24.679Z,10.30
2022-10-12T00:04:51.640Z,10.40
2022-10-12T00:07:18.538Z,10.20
2022-10-12T00:09:45.530Z,10.20
2022-10-12T00:12:12.685Z,10.20
2022-10-12T00:14:39.718Z,10.30
2022-10-12T00:17:06.591Z,10.30
2022-10-12T00:19:33.531Z,10.20
2022-10-12T00:22:00.570Z,10.20
2022-10-12T00:24:27.745Z,10.10
2022-10-12T00:26:54.668Z,10.10
2022-10-12T00:29:21.502Z,10.20
2022-10-12T00:31:48.983Z,10.30
2022-10-12T00:34:17.443Z,10.10
2022-10-12T00:36:44.430Z,10.10
2022-10-12T00:39:11.525Z,10.20
2022-10-12T00:41:41.911Z,10.00
2022-10-12T00:44:38.635Z,10.00
2022-10-12T00:47:19.395Z,9.90
2022-10-12T00:50:07.609Z,9.90
2022-10-12T00:52:47.125Z,9.90
2022-10-12T00:55:18.091Z,9.90
2022-10-12T00:57:47.398Z,9.80
2022-10-12T01:00:15.047Z,9.80
2022-10-12T01:02:43.676Z,9.80
2022-10-12T01:05:12.270Z,9.80
2022-10-12T01:07:39.817Z,9.70
2022-10-12T01:10:07.972Z,9.70
2022-10-12T01:12:36.251Z,9.70
2022-10-12T01:15:04.307Z,9.70
2022-10-12T01:17:34.550Z,9.70
2022-10-12T01:20:35.896Z,9.70
2022-10-12T01:23:17.904Z,9.70
2022-10-12T01:26:02.861Z,9.60
2022-10-12T01:28:44.991Z,9.60
2022-10-12T01:31:30.066Z,9.50
2022-10-12T01:34:34.866Z,9.40
2022-10-12T01:37:40.932Z,9.40
2022-10-12T01:40:16.120Z,9.30
2022-10-12T01:42:44.540Z,9.30
2022-10-12T01:45:17.429Z,9.30
2022-10-12T01:47:49.026Z,9.30
2022-10-12T01:50:18.984Z,9.30
2022-10-12T01:52:57.137Z,9.20
2022-10-12T01:55:48.077Z,9.10
2022-10-12T01:58:45.082Z,9.00
2022-10-12T02:01:36.589Z,9.20
2022-10-12T02:04:15.577Z,9.20
2022-10-12T02:06:49.729Z,9.20
2022-10-12T02:09:25.647Z,9.30
2022-10-12T02:11:57.366Z,9.30
2022-10-12T02:14:31.364Z,9.60
2022-10-12T02:17:05.630Z,9.70
2022-10-12T02:19:40.662Z,9.50
2022-10-12T02:22:09.659Z,9.30
2022-10-12T02:24:40.918Z,9.50
2022-10-12T02:27:09.978Z,9.40
2022-10-12T02:29:40.002Z,9.30
2022-10-12T02:32:34.657Z,9.10
2022-10-12T02:35:09.274Z,9.10
2022-10-12T02:37:42.000Z,8.90
2022-10-12T02:40:36.968Z,8.80
2022-10-12T02:43:33.154Z,8.90
2022-10-12T02:46:01.694Z,8.80
2022-10-12T02:48:29.843Z,8.90
2022-10-12T02:50:58.830Z,8.80
2022-10-12T02:53:30.244Z,8.80
2022-10-12T02:56:15.946Z,8.70
2022-10-12T02:58:45.119Z,8.90
2022-10-12T03:01:13.521Z,8.90
2022-10-12T03:03:40.932Z,8.80
2022-10-12T03:06:08.134Z,9.00
2022-10-12T03:08:35.601Z,9.00
2022-10-12T03:11:05.226Z,8.80
2022-10-12T03:13:32.638Z,8.80
2022-10-12T03:16:09.960Z,8.80
2022-10-12T03:18:37.563Z,8.70
2022-10-12T03:21:05.298Z,8.80
2022-10-12T03:23:32.108Z,8.80
2022-10-12T03:25:59.193Z,8.80
2022-10-12T03:28:26.216Z,8.70
2022-10-12T03:30:53.131Z,8.70
2022-10-12T03:33:20.220Z,8.80
2022-10-12T03:35:47.872Z,8.70
2022-10-12T03:38:16.258Z,8.80
2022-10-12T03:40:43.862Z,8.70
2022-10-12T03:43:12.247Z,8.70
2022-10-12T03:45:39.536Z,8.70
2022-10-12T03:48:07.135Z,8.70
2022-10-12T03:50:35.472Z,8.70
2022-10-12T03:53:04.059Z,8.70
2022-10-12T03:55:31.451Z,8.70
2022-10-12T03:57:58.317Z,8.50
2022-10-12T04:00:26.080Z,8.50
2022-10-12T04:02:52.925Z,8.50
2022-10-12T04:05:19.774Z,8.60
2022-10-12T04:07:46.689Z,8.60
2022-10-12T04:10:19.836Z,8.80
2022-10-12T04:12:47.521Z,8.60
2022-10-12T04:15:14.969Z,8.80
2022-10-12T04:17:42.036Z,8.70
2022-10-12T04:20:10.300Z,8.40
2022-10-12T04:22:38.205Z,8.60
2022-10-12T04:25:05.342Z,8.70
2022-10-12T04:27:32.269Z,8.50
2022-10-12T04:29:59.844Z,8.40
2022-10-12T04:32:27.217Z,8.50
2022-10-12T04:34:54.336Z,8.50
2022-10-12T04:37:21.163Z,8.60
2022-10-12T04:39:48.164Z,8.50
2022-10-12T04:42:15.113Z,8.70
2022-10-12T04:44:41.923Z,8.60
2022-10-12T04:47:08.938Z,8.60
2022-10-12T04:49:35.786Z,8.50
2022-10-12T04:52:02.867Z,8.50
2022-10-12T04:54:30.007Z,8.30
2022-10-12T04:56:57.312Z,8.30
2022-10-12T04:59:24.150Z,8.20
2022-10-12T05:01:54.931Z,8.00
2022-10-12T05:04:21.859Z,7.90
2022-10-12T05:06:48.775Z,7.80
2022-10-12T05:09:17.227Z,7.70
2022-10-12T05:11:44.715Z,7.70
2022-10-12T05:14:11.830Z,7.50
2022-10-12T05:16:39.058Z,7.60
2022-10-12T05:19:06.032Z,7.40
2022-10-12T05:21:34.326Z,7.50
2022-10-12T05:24:01.316Z,7.70
2022-10-12T05:26:28.352Z,8.00
2022-10-12T05:28:55.559Z,8.10
2022-10-12T05:31:22.870Z,8.10
2022-10-12T05:33:50.185Z,8.00
2022-10-12T05:36:17.123Z,7.70
2022-10-12T05:38:44.188Z,7.70
2022-10-12T05:41:11.250Z,7.70
2022-10-12T05:43:38.207Z,7.50
2022-10-12T05:46:05.243Z,7.40
2022-10-12T05:48:33.397Z,7.40
2022-10-12T05:51:00.192Z,7.30
2022-10-12T05:53:27.364Z,7.40
2022-10-12T05:55:56.279Z,7.80
2022-10-12T05:58:23.807Z,8.10
2022-10-12T06:00:51.075Z,7.90
2022-10-12T06:03:19.024Z,8.00
2022-10-12T06:05:46.723Z,7.80
2022-10-12T06:08:14.543Z,7.80
2022-10-12T06:10:47.445Z,7.80
2022-10-12T06:13:14.671Z,7.80
2022-10-12T06:15:41.512Z,7.60
2022-10-12T06:18:08.294Z,7.60
2022-10-12T06:20:37.575Z,7.50
2022-10-12T06:23:04.561Z,7.70
2022-10-12T06:25:31.866Z,7.90
2022-10-12T06:27:58.858Z,7.80
2022-10-12T06:30:26.236Z,7.60
2022-10-12T06:32:53.742Z,7.70
2022-10-12T06:35:21.131Z,7.60
2022-10-12T06:37:51.884Z,7.50
2022-10-12T06:40:19.822Z,7.60
2022-10-12T06:42:48.631Z,7.90
2022-10-12T06:45:19.024Z,7.90
2022-10-12T06:47:46.615Z,7.80
2022-10-12T06:50:13.414Z,7.70
2022-10-12T06:52:40.653Z,7.50
2022-10-12T06:55:08.292Z,7.70
2022-10-12T06:57:35.274Z,7.80
2022-10-12T07:00:02.424Z,8.00
2022-10-12T07:02:29.625Z,8.10
2022-10-12T07:04:56.770Z,8.40
2022-10-12T07:07:27.237Z,8.50
2022-10-12T07:09:54.456Z,8.70
2022-10-12T07:12:21.647Z,8.80
2022-10-12T07:14:48.543Z,8.90
2022-10-12T07:17:15.541Z,8.90
2022-10-12T07:19:42.551Z,8.60
2022-10-12T07:22:09.574Z,8.50
2022-10-12T07:24:38.870Z,8.80
2022-10-12T07:27:10.080Z,8.80
2022-10-12T07:29:38.868Z,8.90
2022-10-12T07:32:07.607Z,8.90
2022-10-12T07:34:35.057Z,9.00
2022-10-12T07:37:02.682Z,9.10
2022-10-12T07:39:29.645Z,9.40
2022-10-12T07:41:56.828Z,9.70
2022-10-12T07:44:24.729Z,9.60
2022-10-12T07:46:52.089Z,9.50
2022-10-12T07:49:19.285Z,9.70
2022-10-12T07:51:49.405Z,9.80
2022-10-12T07:54:21.003Z,9.90
2022-10-12T07:56:50.123Z,10.30
2022-10-12T07:59:17.059Z,10.40
2022-10-12T08:01:43.914Z,10.60
2022-10-12T08:04:11.032Z,10.60
2022-10-12T08:06:37.988Z,10.70
2022-10-12T08:09:05.176Z,11.20
2022-10-12T08:11:32.187Z,11.50
2022-10-12T08:13:59.008Z,11.30
2022-10-12T08:16:26.022Z,11.40
2022-10-12T08:18:52.842Z,11.30
2022-10-12T08:21:19.924Z,11.70
2022-10-12T08:23:48.817Z,11.50
2022-10-12T08:26:16.560Z,11.70
2022-10-12T08:28:44.404Z,11.70
2022-10-12T08:31:17.598Z,12.00
2022-10-12T08:33:45.012Z,12.30
2022-10-12T08:36:12.900Z,12.30
2022-10-12T08:38:40.674Z,12.40
2022-10-12T08:41:35.452Z,12.70
2022-10-12T08:44:05.394Z,12.60
2022-10-12T08:46:32.887Z,12.70
2022-10-12T08:49:10.503Z,12.70
2022-10-12T08:51:49.574Z,12.70
2022-10-12T08:54:20.389Z,12.90
2022-10-12T08:56:47.205Z,13.10
2022-10-12T08:59:17.719Z,13.10
2022-10-12T09:01:56.716Z,13.30
2022-10-12T09:04:32.574Z,13.60
2022-10-12T09:07:08.352Z,13.40
2022-10-12T09:09:56.772Z,13.40
2022-10-12T09:12:54.964Z,13.30
2022-10-12T09:15:44.242Z,13.30
2022-10-12T09:18:31.502Z,13.10
2022-10-12T09:20:59.418Z,12.80
2022-10-12T09:23:30.287Z,13.10
2022-10-12T09:26:13.009Z,13.30
2022-10-12T09:28:56.379Z,13.60
2022-10-12T09:31:42.611Z,13.50
2022-10-12T09:34:11.987Z,13.80
2022-10-12T09:36:42.341Z,14.20
2022-10-12T09:39:32.233Z,14.40
2022-10-12T09:41:59.373Z,14.50
2022-10-12T09:44:41.420Z,14.60
2022-10-12T09:47:27.412Z,14.90
2022-10-12T09:49:59.885Z,15.40
2022-10-12T09:52:36.274Z,15.70
2022-10-12T09:55:20.941Z,15.70
2022-10-12T09:57:59.815Z,16.10
2022-10-12T10:00:31.368Z,16.30
2022-10-12T10:02:59.353Z,16.20
2022-10-12T10:05:30.350Z,16.40
2022-10-12T10:08:22.685Z,16.90
2022-10-12T10:10:55.215Z,17.30
2022-10-12T10:13:26.769Z,17.40
2022-10-12T10:16:08.891Z,17.30
2022-10-12T10:19:00.805Z,17.10
2022-10-12T10:21:32.797Z,17.10
2022-10-12T10:24:02.543Z,17.50
2022-10-12T10:26:49.882Z,17.80
2022-10-12T10:29:22.617Z,17.70
2022-10-12T10:32:28.957Z,17.60
2022-10-12T10:35:03.648Z,17.60
2022-10-12T10:37:31.842Z,17.60
2022-10-12T10:39:59.540Z,17.70
2022-10-12T10:42:30.362Z,18.00
2022-10-12T10:45:03.880Z,18.10
2022-10-12T10:47:32.924Z,18.50
2022-10-12T10:50:02.116Z,18.50
2022-10-12T10:52:35.311Z,18.20
2022-10-12T10:55:11.266Z,18.70
2022-10-12T10:57:44.823Z,19.30
2022-10-12T11:00:37.802Z,19.30
2022-10-12T11:03:40.008Z,19.30
2022-10-12T11:06:26.171Z,19.00
2022-10-12T11:08:59.947Z,18.70
2022-10-12T11:11:28.507Z,18.70
2022-10-12T11:14:01.003Z,19.00
2022-10-12T11:16:37.389Z,18.90
2022-10-12T11:19:31.141Z,19.00
2022-10-12T11:22:14.716Z,19.40
2022-10-12T11:24:44.528Z,19.40
2022-10-12T11:27:20.517Z,19.40
2022-10-12T11:30:07.865Z,19.50
2022-10-12T11:32:44.857Z,19.20
2022-10-12T11:35:29.043Z,18.80
2022-10-12T11:38:02.673Z,18.80
2022-10-12T11:44:06.286Z,19.30
2022-10-12T11:47:00.921Z,19.20
2022-10-12T11:49:46.247Z,19.00
2022-10-12T11:52:13.850Z,19.10
2022-10-12T11:55:12.526Z,19.30
2022-10-12T11:57:39.666Z,19.70
2022-10-12T12:00:19.511Z,19.90
2022-10-12T12:02:53.549Z,20.20
2022-10-12T12:05:21.021Z,19.80
2022-10-12T12:07:50.437Z,19.70
2022-10-12T12:10:26.758Z,19.20
2022-10-12T12:13:15.329Z,19.30
2022-10-12T12:16:03.573Z,19.70
2022-10-12T12:18:34.953Z,19.70
2022-10-12T12:21:09.120Z,19.60
2022-10-12T12:23:52.709Z,19.40
2022-10-12T12:26:22.210Z,19.80
2022-10-12T12:28:52.569Z,19.90
2022-10-12T12:31:23.118Z,19.90
2022-10-12T12:34:01.726Z,20.00
2022-10-12T12:36:36.018Z,20.10
2022-10-12T12:39:06.287Z,19.40
2022-10-12T12:41:54.072Z,18.80
2022-10-12T12:44:40.632Z,18.60
2022-10-12T12:47:32.567Z,18.80
2022-10-12T12:50:05.545Z,18.60
2022-10-12T12:52:34.733Z,18.60
2022-10-12T12:55:16.720Z,18.20
2022-10-12T12:58:19.680Z,18.20
2022-10-12T13:01:06.790Z,18.20
2022-10-12T13:03:55.409Z,18.10
2022-10-12T13:06:56.048Z,18.10
2022-10-12T13:09:29.769Z,18.20
2022-10-12T13:12:17.260Z,18.50
2022-10-12T13:15:12.623Z,18.60
2022-10-12T13:17:45.560Z,18.70
2022-10-12T13:20:32.148Z,18.80
2022-10-12T13:23:02.967Z,18.50
2022-10-12T13:25:33.112Z,18.30
2022-10-12T13:28:09.818Z,18.30
2022-10-12T13:31:10.010Z,18.30
2022-10-12T13:33:54.099Z,18.50
2022-10-12T13:36:25.566Z,18.90
2022-10-12T13:38:57.799Z,19.20
2022-10-12T13:41:30.463Z,18.90
2022-10-12T13:44:03.976Z,19.00
2022-10-12T13:46:46.719Z,19.50
2022-10-12T13:49:18.127Z,19.70
2022-10-12T13:51:48.364Z,19.50
2022-10-12T13:54:17.802Z,19.40
2022-10-12T13:56:46.509Z,19.30
2022-10-12T13:59:21.231Z,19.00
2022-10-12T14:02:02.703Z,19.20
2022-10-12T14:04:32.435Z,19.20
2022-10-12T14:07:03.792Z,19.20
2022-10-12T14:09:46.669Z,19.40
2022-10-12T14:12:16.015Z,19.60
2022-10-12T14:14:45.412Z,19.70
2022-10-12T14:17:17.366Z,19.90
2022-10-12T14:19:53.921Z,20.10
2022-10-12T14:22:25.482Z,20.20
2022-10-12T14:25:16.739Z,20.30
2022-10-12T14:27:44.003Z,19.90
2022-10-12T14:30:28.671Z,20.10
2022-10-12T14:33:09.140Z,20.20
2022-10-12T14:35:37.934Z,20.00
2022-10-12T14:38:42.080Z,20.10
2022-10-12T14:41:31.441Z,20.30
2022-10-12T14:44:11.177Z,20.30
2022-10-12T14:47:00.397Z,19.90
2022-10-12T14:49:44.310Z,19.90
2022-10-12T14:52:17.790Z,19.60
2022-10-12T14:54:45.024Z,19.50
2022-10-12T14:57:17.028Z,19.60
2022-10-12T14:59:43.962Z,19.60
2022-10-12T15:02:32.220Z,19.70
2022-10-12T15:04:59.815Z,19.50
2022-10-12T15:07:32.822Z,19.60
2022-10-12T15:10:00.585Z,19.10
2022-10-12T15:12:31.822Z,19.30
2022-10-12T15:15:19.798Z,19.10
2022-10-12T15:17:46.728Z,19.00
2022-10-12T15:20:14.010Z,19.10
2022-10-12T15:22:41.050Z,19.20
2022-10-12T15:25:50.323Z,19.40
2022-10-12T15:28:17.446Z,19.70
2022-10-12T15:33:33.288Z,19.90
2022-10-12T15:36:00.325Z,19.60
2022-10-12T15:38:27.571Z,19.50
2022-10-12T15:40:58.221Z,19.20
2022-10-12T15:43:26.034Z,19.20
2022-10-12T15:45:53.271Z,19.00
2022-10-12T15:48:20.846Z,18.90
2022-10-12T15:50:49.569Z,18.80
2022-10-12T15:53:21.204Z,18.60
2022-10-12T15:55:48.824Z,18.40
2022-10-12T15:58:16.420Z,18.40
2022-10-12T16:00:43.558Z,18.70
2022-10-12T16:03:19.187Z,18.80
2022-10-12T16:05:52.653Z,18.80
2022-10-12T16:08:19.673Z,18.40
2022-10-12T16:10:47.836Z,18.50
2022-10-12T16:13:15.664Z,18.50
2022-10-12T16:15:42.769Z,18.50
2022-10-12T16:18:10.640Z,18.70
2022-10-12T16:20:41.219Z,18.70
2022-10-12T16:23:14.664Z,18.70
2022-10-12T16:25:41.786Z,18.70
2022-10-12T16:28:11.262Z,18.60
2022-10-12T16:30:40.746Z,18.60
2022-10-12T16:33:07.826Z,18.30
2022-10-12T16:35:38.324Z,18.20
2022-10-12T16:38:06.659Z,18.20
2022-10-12T16:40:33.430Z,18.20
2022-10-12T16:43:05.225Z,18.20
2022-10-12T16:45:32.507Z,18.20
2022-10-12T16:47:59.695Z,18.10
2022-10-12T16:50:26.982Z,18.10
2022-10-12T16:52:54.033Z,17.90
2022-10-12T16:55:21.115Z,17.80
2022-10-12T16:57:48.132Z,18.00
2022-10-12T17:00:19.182Z,18.00
2022-10-12T17:02:47.687Z,17.90
2022-10-12T17:05:14.787Z,17.60
2022-10-12T17:07:42.029Z,17.40
2022-10-12T17:10:09.730Z,17.30
2022-10-12T17:12:36.857Z,17.40
2022-10-12T17:15:05.339Z,17.50
2022-10-12T17:17:32.410Z,17.60
2022-10-12T17:19:59.482Z,17.60
2022-10-12T17:22:26.530Z,17.70
2022-10-12T17:24:53.315Z,17.60
2022-10-12T17:27:20.121Z,17.50
2022-10-12T17:29:47.039Z,17.50
2022-10-12T17:32:14.227Z,17.50
2022-10-12T17:34:43.470Z,17.40
2022-10-12T17:37:13.493Z,17.20
2022-10-12T17:39:43.716Z,17.30
2022-10-12T17:42:11.583Z,17.40
2022-10-12T17:44:38.453Z,17.20
2022-10-12T17:47:05.355Z,17.30
2022-10-12T17:49:32.503Z,17.20
2022-10-12T17:51:59.579Z,17.10
2022-10-12T17:54:27.313Z,17.20
2022-10-12T17:56:55.641Z,17.20
2022-10-12T17:59:22.736Z,17.20
2022-10-12T18:01:50.677Z,17.10
2022-10-12T18:04:18.287Z,16.90
2022-10-12T18:06:45.847Z,17.00
2022-10-12T18:09:14.484Z,16.90
2022-10-12T18:11:41.833Z,17.00
2022-10-12T18:14:10.277Z,16.90
2022-10-12T18:16:37.689Z,17.00
2022-10-12T18:19:06.336Z,16.90
2022-10-12T18:21:33.899Z,16.90
2022-10-12T18:24:16.087Z,16.70
2022-10-12T18:26:45.655Z,16.50
2022-10-12T18:29:12.572Z,16.50
2022-10-12T18:31:39.735Z,16.40
2022-10-12T18:34:06.728Z,16.50
2022-10-12T18:36:34.513Z,16.70
2022-10-12T18:39:03.512Z,16.70
2022-10-12T18:41:33.806Z,16.60
2022-10-12T18:44:02.454Z,16.60
2022-10-12T18:46:32.875Z,16.60
2022-10-12T18:49:04.896Z,16.70
2022-10-12T18:51:34.094Z,16.60
2022-10-12T18:54:02.237Z,16.50
2022-10-12T18:56:30.377Z,16.50
2022-10-12T18:58:59.978Z,16.50
2022-10-12T19:01:28.934Z,16.40
2022-10-12T19:03:57.694Z,16.10
2022-10-12T19:06:31.550Z,16.30
2022-10-12T19:08:59.257Z,16.50
2022-10-12T19:11:27.081Z,16.50
2022-10-12T19:13:59.471Z,16.50
2022-10-12T19:16:27.108Z,16.30
2022-10-12T19:18:59.558Z,16.10
2022-10-12T19:21:26.978Z,16.10
2022-10-12T19:23:54.016Z,15.90
2022-10-12T19:26:24.774Z,15.90
2022-10-12T19:28:54.181Z,15.90
2022-10-12T19:31:27.084Z,15.90
2022-10-12T19:33:59.331Z,15.90
2022-10-12T19:36:28.624Z,15.70
2022-10-12T19:39:01.238Z,15.80
2022-10-12T19:41:30.373Z,16.10
2022-10-12T19:43:58.617Z,16.20
2022-10-12T19:46:39.871Z,16.20
2022-10-12T19:49:06.942Z,16.10
2022-10-12T19:51:35.824Z,15.80
2022-10-12T19:54:05.018Z,15.90
2022-10-12T19:56:32.937Z,15.90
2022-10-12T19:59:00.011Z,16.00
2022-10-12T20:01:30.523Z,16.10
2022-10-12T20:03:57.547Z,16.00
2022-10-12T20:06:27.353Z,15.70
2022-10-12T20:08:56.003Z,15.70
2022-10-12T20:11:24.917Z,15.90
2022-10-12T20:13:53.171Z,16.00
2022-10-12T20:16:20.829Z,16.20
2022-10-12T20:18:48.961Z,16.00
2022-10-12T20:21:19.213Z,16.00
2022-10-12T20:23:46.976Z,15.80
2022-10-12T20:26:19.714Z,15.90
2022-10-12T20:28:47.394Z,15.90
2022-10-12T20:31:14.540Z,16.00
2022-10-12T20:33:42.258Z,15.90
2022-10-12T20:36:11.209Z,15.80
2022-10-12T20:38:39.175Z,15.80
2022-10-12T20:41:08.851Z,15.70
2022-10-12T20:43:39.762Z,15.80
2022-10-12T20:46:10.460Z,15.90
2022-10-12T20:48:39.785Z,16.00
2022-10-12T20:51:09.372Z,15.90
2022-10-12T20:53:37.879Z,15.90
2022-10-12T20:56:08.897Z,15.90
2022-10-12T20:58:35.896Z,16.10
2022-10-12T21:01:08.801Z,16.20
2022-10-12T21:03:36.322Z,16.00
2022-10-12T21:06:08.667Z,15.90
2022-10-12T21:08:36.308Z,15.80
2022-10-12T21:11:04.025Z,15.90
2022-10-12T21:13:32.974Z,15.80
2022-10-12T21:16:00.820Z,15.80
2022-10-12T21:18:32.753Z,15.80
2022-10-12T21:21:11.801Z,16.00
2022-10-12T21:23:41.496Z,16.00
2022-10-12T21:26:14.069Z,16.00
2022-10-12T21:28:41.633Z,15.90
2022-10-12T21:31:09.485Z,15.90
2022-10-12T21:33:37.464Z,15.80
2022-10-12T21:36:16.323Z,15.70
2022-10-12T21:38:43.461Z,15.60
2022-10-12T21:41:12.421Z,15.50
2022-10-12T21:43:40.774Z,15.40
2022-10-12T21:46:11.452Z,15.40
2022-10-12T21:48:39.672Z,15.40
2022-10-12T21:51:07.492Z,15.50
2022-10-12T21:53:35.887Z,15.40
2022-10-12T21:56:18.670Z,15.40
2022-10-12T21:58:46.036Z,15.40
2022-10-12T22:01:24.646Z,15.40
2022-10-12T22:03:56.502Z,15.40
2022-10-12T22:06:25.194Z,15.30
2022-10-12T22:08:57.905Z,15.10
2022-10-12T22:11:27.641Z,15.10
2022-10-12T22:14:07.044Z,15.00
2022-10-12T22:16:35.010Z,15.30
2022-10-12T22:19:03.902Z,15.30
2022-10-12T22:21:31.896Z,14.90
2022-10-12T22:24:06.237Z,15.20
2022-10-12T22:26:33.533Z,15.40
2022-10-12T22:29:00.852Z,15.40
2022-10-12T22:31:28.433Z,15.50
2022-10-12T22:33:56.141Z,15.60
2022-10-12T22:36:23.683Z,15.50
2022-10-12T22:38:50.742Z,15.40
2022-10-12T22:41:20.314Z,15.50
2022-10-12T22:43:48.973Z,15.30
2022-10-12T22:46:17.490Z,15.30
2022-10-12T22:48:44.422Z,15.50
2022-10-12T22:51:15.713Z,15.30
2022-10-12T22:53:42.862Z,15.40
2022-10-12T22:56:15.490Z,15.40
2022-10-12T22:58:42.777Z,15.30
2022-10-12T23:01:16.271Z,15.30
2022-10-12T23:03:43.793Z,15.20
2022-10-12T23:06:11.880Z,15.00
2022-10-12T23:08:39.230Z,14.90
2022-10-12T23:11:11.904Z,15.00
2022-10-12T23:13:40.064Z,15.10
2022-10-12T23:16:10.878Z,15.10
2022-10-12T23:18:39.101Z,15.00
2022-10-12T23:21:08.735Z,15.10
2022-10-12T23:23:36.955Z,15.20
2022-10-12T23:26:19.001Z,15.30
2022-10-12T23:28:47.402Z,15.10
2022-10-12T23:31:16.898Z,15.00
2022-10-12T23:33:43.904Z,15.10
2022-10-12T23:36:13.713Z,15.30
2022-10-12T23:38:42.205Z,15.10
2022-10-12T23:41:09.941Z,15.10
2022-10-12T23:43:37.609Z,15.10
2022-10-12T23:46:06.054Z,15.30
2022-10-12T23:48:34.567Z,15.30
2022-10-12T23:51:01.695Z,15.40
2022-10-12T23:53:29.395Z,15.30
2022-10-12T23:55:56.291Z,15.00
2022-10-12T23:58:23.144Z,15.00
